createdAt,value
2022-08-22T00:02:57.069Z,7.40
2022-08-22T00:02:59.282Z,8.50
2022-08-22T00:03:04.983Z,7.70
2022-08-22T00:03:07.042Z,10.23
2022-08-22T00:03:11.174Z,8.75
2022-08-22T00:08:31.239Z,8.20
2022-08-22T00:13:44.083Z,8.52
2022-08-22T00:18:53.545Z,7.50
2022-08-22T00:24:08.328Z,6.60
2022-08-22T00:29:15.992Z,7.80
2022-08-22T00:34:30.451Z,8.98
2022-08-22T00:39:40.213Z,8.65
2022-08-22T00:45:05.383Z,10.27
2022-08-22T00:50:28.712Z,9.10
2022-08-22T00:55:49.499Z,10.80
2022-08-22T01:00:57.045Z,10.52
2022-08-22T01:06:15.092Z,14.90
2022-08-22T01:11:36.422Z,11.70
2022-08-22T01:17:05.614Z,13.32
2022-08-22T01:22:48.692Z,12.63
2022-08-22T01:28:27.881Z,11.15
2022-08-22T01:34:04.574Z,14.77
2022-08-22T01:39:40.261Z,13.35
2022-08-22T01:45:05.018Z,12.23
2022-08-22T01:50:20.392Z,10.45
2022-08-22T01:55:33.046Z,9.30
2022-08-22T02:01:02.953Z,8.35
2022-08-22T02:06:10.765Z,9.60
2022-08-22T02:11:38.883Z,9.55
2022-08-22T02:21:55.760Z,16.60
2022-08-22T02:27:10.166Z,12.60
2022-08-22T02:32:23.727Z,12.32
2022-08-22T02:37:36.390Z,12.75
2022-08-22T02:42:46.515Z,13.02
2022-08-22T02:47:58.744Z,14.55
2022-08-22T02:53:10.863Z,13.80
2022-08-22T02:58:25.459Z,20.98
2022-08-22T03:03:31.760Z,11.30
2022-08-22T03:08:39.018Z,16.98
2022-08-22T03:13:59.088Z,15.98
2022-08-22T03:19:13.206Z,15.15
2022-08-22T03:24:26.345Z,13.68
2022-08-22T03:29:34.471Z,17.20
2022-08-22T03:34:39.507Z,14.77
2022-08-22T03:39:55.849Z,12.73
2022-08-22T03:45:19.561Z,13.73
2022-08-22T03:50:54.440Z,12.77
2022-08-22T03:56:44.270Z,14.77
2022-08-22T04:02:03.045Z,16.40
2022-08-22T04:08:04.147Z,12.73
2022-08-22T04:13:31.324Z,15.77
2022-08-22T04:18:53.051Z,12.32
2022-08-22T04:24:40.267Z,15.20
2022-08-22T04:29:48.527Z,16.50
2022-08-22T04:34:56.752Z,20.65
2022-08-22T04:40:09.697Z,13.07
2022-08-22T04:45:17.556Z,14.45
2022-08-22T04:50:24.979Z,15.32
2022-08-22T04:55:36.484Z,17.30
2022-08-22T05:00:45.876Z,14.15
2022-08-22T05:05:49.771Z,13.18
2022-08-22T05:10:55.399Z,13.98
2022-08-22T05:16:03.380Z,14.52
2022-08-22T05:21:13.970Z,18.35
2022-08-22T05:26:20.273Z,12.88
2022-08-22T05:31:29.948Z,13.70
2022-08-22T05:36:37.894Z,12.45
2022-08-22T05:41:43.019Z,14.38
2022-08-22T05:46:49.958Z,13.07
2022-08-22T05:52:06.122Z,13.07
2022-08-22T05:57:24.070Z,12.25
2022-08-22T06:02:40.049Z,12.70
2022-08-22T06:07:47.741Z,14.20
2022-08-22T06:12:59.500Z,13.85
2022-08-22T06:18:08.020Z,12.43
2022-08-22T06:23:17.157Z,13.40
2022-08-22T06:28:24.555Z,15.65
2022-08-22T06:33:29.657Z,14.18
2022-08-22T06:38:48.467Z,12.13
2022-08-22T06:43:54.085Z,14.82
2022-08-22T06:48:58.423Z,14.30
2022-08-22T06:54:06.326Z,10.07
2022-08-22T06:59:14.910Z,13.07
2022-08-22T07:04:18.987Z,14.85
2022-08-22T07:09:26.658Z,11.68
2022-08-22T07:14:39.698Z,14.35
2022-08-22T07:19:50.376Z,11.35
2022-08-22T07:25:02.480Z,11.38
2022-08-22T07:30:10.928Z,12.90
2022-08-22T07:35:18.315Z,14.82
2022-08-22T07:40:28.501Z,11.52
2022-08-22T07:45:42.423Z,10.95
2022-08-22T07:50:55.396Z,14.23
2022-08-22T07:56:03.669Z,13.68
2022-08-22T08:01:10.888Z,14.02
2022-08-22T08:06:13.806Z,14.15
2022-08-22T08:11:18.950Z,13.65
2022-08-22T08:16:26.116Z,8.80
2022-08-22T08:21:31.967Z,13.07
2022-08-22T08:26:39.971Z,12.75
2022-08-22T08:31:45.624Z,13.07
2022-08-22T08:36:52.320Z,11.18
2022-08-22T08:42:11.073Z,14.38
2022-08-22T08:47:31.612Z,9.95
2022-08-22T08:53:19.085Z,8.40
2022-08-22T08:58:51.577Z,7.65
2022-08-22T09:04:26.218Z,13.48
2022-08-22T09:09:52.276Z,7.88
2022-08-22T09:15:19.934Z,7.03
2022-08-22T09:20:48.864Z,10.63
2022-08-22T09:25:55.917Z,11.48
2022-08-22T09:31:32.916Z,7.35
2022-08-22T09:36:56.594Z,8.80
2022-08-22T09:42:09.550Z,9.45
2022-08-22T09:47:24.728Z,14.30
2022-08-22T09:52:53.604Z,9.52
2022-08-22T09:58:04.536Z,7.43
2022-08-22T10:03:18.458Z,5.90
2022-08-22T10:08:39.593Z,9.23
2022-08-22T10:14:00.601Z,6.40
2022-08-22T10:19:16.522Z,6.00
2022-08-22T10:24:44.057Z,6.47
2022-08-22T10:30:03.844Z,6.15
2022-08-22T10:35:20.709Z,6.43
2022-08-22T10:40:30.392Z,8.65
2022-08-22T10:45:37.078Z,8.52
2022-08-22T10:50:44.922Z,7.43
2022-08-22T10:55:51.626Z,7.78
2022-08-22T11:01:00.508Z,8.60
2022-08-22T11:06:12.753Z,5.88
2022-08-22T11:11:40.090Z,4.88
2022-08-22T11:16:56.661Z,5.35
2022-08-22T11:22:16.791Z,4.78
2022-08-22T11:27:40.238Z,6.25
2022-08-22T11:33:11.051Z,3.65
2022-08-22T11:38:32.416Z,4.80
2022-08-22T11:43:48.318Z,4.78
2022-08-22T11:49:25.717Z,3.70
2022-08-22T11:54:42.236Z,3.42
2022-08-22T12:00:20.795Z,8.63
2022-08-22T12:05:29.974Z,5.03
2022-08-22T12:10:36.777Z,4.57
2022-08-22T12:15:48.952Z,5.65
2022-08-22T12:21:15.222Z,3.13
2022-08-22T12:26:27.681Z,4.07
2022-08-22T12:31:42.677Z,6.53
2022-08-22T12:37:00.508Z,5.70
2022-08-22T12:42:25.439Z,4.15
2022-08-22T12:47:49.655Z,5.15
2022-08-22T12:53:07.568Z,4.13
2022-08-22T12:58:22.903Z,3.20
2022-08-22T13:03:32.340Z,3.38
2022-08-22T13:08:39.976Z,4.55
2022-08-22T13:13:55.995Z,4.93
2022-08-22T13:19:07.603Z,3.97
2022-08-22T13:24:16.945Z,3.38
2022-08-22T13:29:39.631Z,5.80
2022-08-22T13:34:51.314Z,3.80
2022-08-22T13:39:59.769Z,5.32
2022-08-22T13:45:12.028Z,4.20
2022-08-22T13:50:20.701Z,7.43
2022-08-22T13:55:37.412Z,4.95
2022-08-22T14:06:36.834Z,3.88
2022-08-22T14:11:44.802Z,3.90
2022-08-22T14:16:50.698Z,4.07
2022-08-22T14:21:59.246Z,4.25
2022-08-22T14:27:07.014Z,4.78
2022-08-22T14:32:35.074Z,3.63
2022-08-22T14:37:43.107Z,3.80
2022-08-22T14:42:51.175Z,3.83
2022-08-22T14:48:29.209Z,5.68
2022-08-22T14:53:27.899Z,3.83
2022-08-22T14:58:36.204Z,3.50
2022-08-22T15:03:42.554Z,3.58
2022-08-22T15:08:51.522Z,2.25
2022-08-22T15:14:03.369Z,4.95
2022-08-22T15:19:27.257Z,3.78
2022-08-22T15:24:31.923Z,3.15
2022-08-22T15:29:50.919Z,2.42
2022-08-22T15:34:54.788Z,4.55
2022-08-22T15:40:28.488Z,3.33
2022-08-22T15:45:36.079Z,5.28
2022-08-22T15:50:42.272Z,3.35
2022-08-22T15:56:23.531Z,5.13
2022-08-22T16:01:27.091Z,2.33
2022-08-22T16:06:46.828Z,5.50
2022-08-22T16:11:56.368Z,4.05
2022-08-22T16:17:03.905Z,5.35
2022-08-22T16:22:19.140Z,3.88
2022-08-22T16:27:54.783Z,6.70
2022-08-22T16:32:58.582Z,4.05
2022-08-22T16:38:01.606Z,4.03
2022-08-22T16:43:18.615Z,2.80
2022-08-22T16:48:36.332Z,4.78
2022-08-22T16:54:12.145Z,3.65
2022-08-22T16:59:38.620Z,5.30
2022-08-22T17:04:59.240Z,8.93
2022-08-22T17:10:20.944Z,5.90
2022-08-22T17:15:35.062Z,6.75
2022-08-22T17:20:47.636Z,6.25
2022-08-22T17:31:03.779Z,6.82
2022-08-22T17:36:26.708Z,6.68
2022-08-22T17:41:39.165Z,7.28
2022-08-22T17:46:49.045Z,5.80
2022-08-22T17:51:57.364Z,6.35
2022-08-22T17:57:06.263Z,7.47
2022-08-22T18:02:16.531Z,7.50
2022-08-22T18:07:34.300Z,7.63
2022-08-22T18:12:45.655Z,3.17
2022-08-22T18:17:55.617Z,3.65
2022-08-22T18:23:03.525Z,7.47
2022-08-22T18:28:13.408Z,5.95
2022-08-22T18:33:24.391Z,5.22
2022-08-22T18:38:32.187Z,6.25
2022-08-22T18:43:39.087Z,6.63
2022-08-22T18:49:11.691Z,4.18
2022-08-22T18:54:36.379Z,6.75
2022-08-22T18:59:48.824Z,5.22
2022-08-22T19:05:13.186Z,6.50
2022-08-22T19:10:29.748Z,3.03
2022-08-22T19:15:42.401Z,9.73
2022-08-22T19:21:34.622Z,4.47
2022-08-22T19:26:44.252Z,4.88
2022-08-22T19:31:50.502Z,4.82
2022-08-22T19:37:30.861Z,6.43
2022-08-22T19:42:41.426Z,4.03
2022-08-22T19:47:53.800Z,6.78
2022-08-22T19:53:08.562Z,7.57
2022-08-22T19:58:32.914Z,5.10
2022-08-22T20:03:45.755Z,6.03
2022-08-22T20:09:04.092Z,7.13
2022-08-22T20:14:22.475Z,4.28
2022-08-22T20:20:16.569Z,8.10
2022-08-22T20:25:41.471Z,4.25
2022-08-22T20:30:44.310Z,5.72
2022-08-22T20:35:54.406Z,8.10
2022-08-22T20:41:15.112Z,5.70
2022-08-22T20:46:34.619Z,7.50
2022-08-22T20:51:37.711Z,6.03
2022-08-22T20:56:52.669Z,4.82
2022-08-22T21:02:04.822Z,6.22
2022-08-22T21:07:07.409Z,5.07
2022-08-22T21:12:12.128Z,4.80
2022-08-22T21:17:20.200Z,6.20
2022-08-22T21:22:28.310Z,5.47
2022-08-22T21:27:34.855Z,7.15
2022-08-22T21:32:42.937Z,6.28
2022-08-22T21:37:46.863Z,6.70
2022-08-22T21:43:05.713Z,4.72
2022-08-22T21:48:33.884Z,6.50
2022-08-22T21:53:37.891Z,4.75
2022-08-22T21:58:43.632Z,6.32
2022-08-22T22:03:46.206Z,6.50
2022-08-22T22:08:50.637Z,8.05
2022-08-22T22:18:57.871Z,4.78
2022-08-22T22:24:00.473Z,5.30
2022-08-22T22:29:05.141Z,6.15
2022-08-22T22:34:07.702Z,7.38
2022-08-22T22:39:11.013Z,6.88
2022-08-22T22:44:15.047Z,8.45
2022-08-22T22:49:19.834Z,8.38
2022-08-22T22:54:27.301Z,8.63
2022-08-22T22:59:32.554Z,7.43
2022-08-22T23:04:37.865Z,8.73
2022-08-22T23:09:45.179Z,8.73
2022-08-22T23:14:49.394Z,8.25
2022-08-22T23:19:52.574Z,7.20
2022-08-22T23:24:55.183Z,8.40
2022-08-22T23:29:59.179Z,10.45
2022-08-22T23:35:01.782Z,9.82
2022-08-22T23:40:07.430Z,8.27
2022-08-22T23:45:11.870Z,8.18
2022-08-22T23:50:14.465Z,8.15
2022-08-22T23:55:17.600Z,9.50
